createdAt,value
2018-07-12T00:01:56.758Z,4.20
2018-07-12T00:04:24.094Z,3.77
2018-07-12T00:06:51.434Z,4.30
2018-07-12T00:09:18.731Z,4.60
2018-07-12T00:11:46.081Z,4.10
2018-07-12T00:14:13.406Z,4.47
2018-07-12T00:16:40.784Z,4.87
2018-07-12T00:19:08.118Z,3.50
2018-07-12T00:21:35.473Z,3.70
2018-07-12T00:24:02.788Z,4.03
2018-07-12T00:26:30.168Z,3.80
2018-07-12T00:28:57.483Z,3.90
2018-07-12T00:31:24.789Z,4.00
2018-07-12T00:33:52.131Z,4.20
2018-07-12T00:36:19.457Z,3.60
2018-07-12T00:38:46.824Z,3.50
2018-07-12T00:41:14.128Z,5.03
2018-07-12T00:43:41.485Z,5.10
2018-07-12T00:46:08.854Z,4.63
2018-07-12T00:48:36.181Z,4.80
2018-07-12T00:51:03.540Z,6.10
2018-07-12T00:53:30.886Z,7.37
2018-07-12T00:55:58.275Z,6.77
2018-07-12T00:58:25.596Z,7.73
2018-07-12T01:00:52.950Z,9.07
2018-07-12T01:03:20.280Z,8.77
2018-07-12T01:05:47.658Z,8.10
2018-07-12T01:08:14.983Z,9.57
2018-07-12T01:10:42.310Z,9.70
2018-07-12T01:13:09.656Z,8.20
2018-07-12T01:15:36.956Z,7.23
2018-07-12T01:18:04.331Z,7.33
2018-07-12T01:20:31.643Z,8.60
2018-07-12T01:22:58.974Z,7.67
2018-07-12T01:25:26.283Z,8.83
2018-07-12T01:27:53.669Z,8.90
2018-07-12T01:30:20.976Z,9.60
2018-07-12T01:32:48.330Z,10.37
2018-07-12T01:35:15.665Z,8.10
2018-07-12T01:37:43.027Z,7.83
2018-07-12T01:40:10.335Z,8.27
2018-07-12T01:42:37.681Z,6.77
2018-07-12T01:45:05.008Z,8.20
2018-07-12T01:47:32.644Z,7.00
2018-07-12T01:49:59.954Z,9.67
2018-07-12T01:52:27.290Z,8.47
2018-07-12T01:54:54.611Z,10.27
2018-07-12T01:57:21.995Z,10.50
2018-07-12T01:59:49.311Z,9.97
2018-07-12T02:02:16.652Z,9.80
2018-07-12T02:04:44.016Z,10.37
2018-07-12T02:07:11.341Z,11.27
2018-07-12T02:09:38.688Z,10.27
2018-07-12T02:12:06.120Z,11.03
2018-07-12T02:14:33.484Z,9.13
2018-07-12T02:17:00.872Z,9.83
2018-07-12T02:19:28.184Z,9.97
2018-07-12T02:21:55.507Z,10.50
2018-07-12T02:24:22.931Z,9.67
2018-07-12T02:26:50.231Z,8.60
2018-07-12T02:29:17.553Z,8.47
2018-07-12T02:31:44.943Z,10.20
2018-07-12T02:34:12.281Z,10.47
2018-07-12T02:36:39.641Z,9.83
2018-07-12T02:39:06.940Z,10.53
2018-07-12T02:41:34.323Z,10.30
2018-07-12T02:44:01.636Z,10.33
2018-07-12T02:46:28.986Z,11.50
2018-07-12T02:48:56.330Z,10.70
2018-07-12T02:51:23.704Z,11.33
2018-07-12T02:53:51.042Z,10.90
2018-07-12T02:56:21.680Z,10.07
2018-07-12T02:58:49.023Z,10.70
2018-07-12T03:01:16.397Z,11.33
2018-07-12T03:03:43.772Z,11.17
2018-07-12T03:06:11.146Z,9.83
2018-07-12T03:08:38.464Z,12.33
2018-07-12T03:11:05.825Z,13.27
2018-07-12T03:13:33.166Z,10.50
2018-07-12T03:16:00.505Z,13.17
2018-07-12T03:18:27.832Z,13.87
2018-07-12T03:20:55.180Z,13.53
2018-07-12T03:23:22.503Z,13.17
2018-07-12T03:25:49.844Z,12.63
2018-07-12T03:28:17.158Z,12.87
2018-07-12T03:30:44.514Z,12.90
2018-07-12T03:33:11.828Z,12.27
2018-07-12T03:35:39.145Z,12.40
2018-07-12T03:38:06.483Z,11.87
2018-07-12T03:40:33.821Z,12.20
2018-07-12T03:43:01.219Z,12.93
2018-07-12T03:45:28.563Z,13.57
2018-07-12T03:47:55.921Z,11.47
2018-07-12T03:50:23.250Z,13.57
2018-07-12T03:52:50.590Z,12.93
2018-07-12T03:55:17.902Z,11.43
2018-07-12T03:57:45.343Z,11.87
2018-07-12T04:00:12.661Z,11.43
2018-07-12T04:02:40.003Z,11.37
2018-07-12T04:05:07.344Z,12.87
2018-07-12T04:07:34.690Z,14.97
2018-07-12T04:10:02.006Z,13.87
2018-07-12T04:12:29.339Z,13.87
2018-07-12T04:14:56.680Z,14.23
2018-07-12T04:17:29.281Z,14.00
2018-07-12T04:19:57.560Z,13.10
2018-07-12T04:22:25.427Z,12.30
2018-07-12T04:24:52.734Z,13.33
2018-07-12T04:27:20.683Z,12.80
2018-07-12T04:29:50.284Z,13.17
2018-07-12T04:32:17.968Z,13.43
2018-07-12T04:34:45.950Z,12.50
2018-07-12T04:37:13.232Z,13.60
2018-07-12T04:39:40.672Z,13.40
2018-07-12T04:42:07.993Z,14.03
2018-07-12T04:44:35.590Z,14.17
2018-07-12T04:47:02.899Z,13.70
2018-07-12T04:49:30.252Z,15.03
2018-07-12T04:51:58.487Z,14.50
2018-07-12T04:54:26.259Z,15.10
2018-07-12T04:56:53.573Z,16.30
2018-07-12T04:59:21.534Z,17.50
2018-07-12T05:01:49.279Z,16.93
2018-07-12T05:04:16.620Z,17.27
2018-07-12T05:06:43.923Z,17.70
2018-07-12T05:09:11.771Z,17.40
2018-07-12T05:11:39.096Z,17.93
2018-07-12T05:14:06.477Z,17.27
2018-07-12T05:16:33.793Z,18.10
2018-07-12T05:19:01.139Z,17.67
2018-07-12T05:21:28.443Z,17.17
2018-07-12T05:23:55.783Z,17.27
2018-07-12T05:26:23.082Z,16.40
2018-07-12T05:28:50.716Z,17.93
2018-07-12T05:31:18.012Z,17.80
2018-07-12T05:33:45.323Z,18.63
2018-07-12T05:36:25.456Z,17.23
2018-07-12T05:38:53.931Z,17.90
2018-07-12T05:41:22.339Z,17.27
2018-07-12T05:43:50.921Z,19.20
2018-07-12T05:46:19.344Z,17.47
2018-07-12T05:48:47.737Z,18.17
2018-07-12T05:51:16.180Z,18.67
2018-07-12T05:53:44.571Z,17.90
2018-07-12T05:56:13.012Z,16.87
2018-07-12T05:58:41.403Z,18.37
2018-07-12T06:01:21.019Z,18.87
2018-07-12T06:03:49.460Z,17.90
2018-07-12T06:06:17.918Z,19.53
2018-07-12T06:08:46.345Z,18.00
2018-07-12T06:11:14.773Z,17.83
2018-07-12T06:13:43.179Z,18.47
2018-07-12T06:16:11.668Z,18.77
2018-07-12T06:18:40.027Z,18.37
2018-07-12T06:21:08.467Z,18.87
2018-07-12T06:23:36.863Z,18.50
2018-07-12T06:26:05.290Z,18.83
2018-07-12T06:28:33.682Z,17.97
2018-07-12T06:31:02.244Z,16.37
2018-07-12T06:33:30.686Z,16.17
2018-07-12T06:35:59.127Z,15.40
2018-07-12T06:38:27.563Z,15.80
2018-07-12T06:40:55.998Z,16.80
2018-07-12T06:43:24.402Z,16.30
2018-07-12T06:45:52.978Z,16.80
2018-07-12T06:48:21.399Z,17.17
2018-07-12T06:50:49.811Z,14.87
2018-07-12T06:53:18.261Z,15.40
2018-07-12T06:55:46.652Z,15.43
2018-07-12T06:58:15.083Z,14.00
2018-07-12T07:00:43.525Z,15.53
2018-07-12T07:03:12.031Z,15.63
2018-07-12T07:05:40.427Z,16.17
2018-07-12T07:08:08.861Z,16.20
2018-07-12T07:10:37.262Z,15.03
2018-07-12T07:13:05.703Z,15.20
2018-07-12T07:15:34.103Z,15.73
2018-07-12T07:18:02.568Z,14.57
2018-07-12T07:20:30.961Z,14.50
2018-07-12T07:22:59.410Z,13.83
2018-07-12T07:25:27.838Z,14.10
2018-07-12T07:27:56.270Z,13.60
2018-07-12T07:30:24.682Z,14.37
2018-07-12T07:32:53.132Z,14.50
2018-07-12T07:35:21.644Z,14.57
2018-07-12T07:37:50.075Z,15.13
2018-07-12T07:40:18.477Z,13.07
2018-07-12T07:42:46.916Z,14.93
2018-07-12T07:45:15.311Z,14.33
2018-07-12T07:47:43.748Z,14.53
2018-07-12T07:50:12.148Z,14.50
2018-07-12T07:52:40.577Z,14.43
2018-07-12T07:55:08.979Z,13.97
2018-07-12T07:57:37.420Z,14.13
2018-07-12T08:00:05.821Z,14.60
2018-07-12T08:02:34.256Z,13.93
2018-07-12T08:05:02.663Z,12.87
2018-07-12T08:07:31.107Z,12.43
2018-07-12T08:09:59.502Z,11.70
2018-07-12T08:12:27.937Z,11.33
2018-07-12T08:14:56.343Z,12.47
2018-07-12T08:17:24.779Z,11.63
2018-07-12T08:19:53.171Z,11.87
2018-07-12T08:22:21.756Z,11.23
2018-07-12T08:24:50.161Z,11.03
2018-07-12T08:27:19.456Z,10.70
2018-07-12T08:29:47.928Z,10.60
2018-07-12T08:32:16.315Z,10.40
2018-07-12T08:34:44.800Z,10.57
2018-07-12T08:37:13.220Z,9.80
2018-07-12T08:39:41.617Z,9.27
2018-07-12T08:42:10.066Z,9.73
2018-07-12T08:44:38.468Z,9.87
2018-07-12T08:47:06.918Z,8.83
2018-07-12T08:49:35.427Z,9.20
2018-07-12T08:52:03.992Z,8.10
2018-07-12T08:54:32.425Z,8.93
2018-07-12T08:57:00.832Z,8.30
2018-07-12T08:59:29.260Z,8.67
2018-07-12T09:01:57.679Z,9.00
2018-07-12T09:04:26.068Z,8.47
2018-07-12T09:06:54.463Z,8.67
2018-07-12T09:09:22.900Z,8.80
2018-07-12T09:11:51.283Z,8.83
2018-07-12T09:14:19.707Z,8.43
2018-07-12T09:16:48.114Z,7.90
2018-07-12T09:19:16.551Z,8.47
2018-07-12T09:21:45.009Z,8.57
2018-07-12T09:24:13.391Z,7.33
2018-07-12T09:26:41.780Z,7.23
2018-07-12T09:29:10.235Z,8.40
2018-07-12T09:31:38.629Z,6.90
2018-07-12T09:34:06.813Z,7.53
2018-07-12T09:36:35.216Z,7.10
2018-07-12T09:39:03.868Z,7.33
2018-07-12T09:41:32.266Z,7.07
2018-07-12T09:44:00.699Z,7.00
2018-07-12T09:46:29.079Z,6.73
2018-07-12T09:48:57.505Z,5.70
2018-07-12T09:51:25.911Z,6.03
2018-07-12T09:53:54.336Z,6.73
2018-07-12T09:56:24.318Z,6.80
2018-07-12T09:58:52.729Z,6.33
2018-07-12T10:01:26.360Z,6.17
2018-07-12T10:03:54.821Z,5.87
2018-07-12T10:06:26.937Z,5.47
2018-07-12T10:08:57.075Z,5.80
2018-07-12T10:11:30.818Z,5.00
2018-07-12T10:16:08.207Z,5.03
2018-07-12T10:18:36.649Z,5.10
2018-07-12T10:21:05.040Z,4.63
2018-07-12T10:23:33.440Z,4.43
2018-07-12T10:26:01.896Z,4.60
2018-07-12T10:28:30.486Z,3.50
2018-07-12T10:30:58.879Z,4.40
2018-07-12T10:33:26.971Z,4.63
2018-07-12T10:35:55.434Z,4.10
2018-07-12T10:38:23.839Z,4.13
2018-07-12T10:40:52.263Z,3.50
2018-07-12T10:43:20.659Z,3.80
2018-07-12T10:45:49.088Z,3.70
2018-07-12T10:48:17.476Z,3.50
2018-07-12T10:50:45.914Z,4.17
2018-07-12T10:53:14.317Z,4.80
2018-07-12T10:55:42.755Z,4.30
2018-07-12T10:58:11.134Z,4.20
2018-07-12T11:00:39.573Z,3.30
2018-07-12T11:03:08.437Z,3.80
2018-07-12T11:05:36.866Z,3.40
2018-07-12T11:08:05.319Z,3.33
2018-07-12T11:10:33.795Z,3.80
2018-07-12T11:13:13.884Z,3.17
2018-07-12T11:15:42.773Z,2.90
2018-07-12T11:18:11.116Z,2.70
2018-07-12T11:20:39.554Z,2.30
2018-07-12T11:23:07.954Z,2.30
2018-07-12T11:25:36.398Z,2.63
2018-07-12T11:28:05.071Z,2.60
2018-07-12T11:30:33.903Z,2.80
2018-07-12T11:33:13.015Z,2.50
2018-07-12T11:35:41.439Z,2.70
2018-07-12T11:38:09.836Z,2.50
2018-07-12T11:40:38.268Z,2.73
2018-07-12T11:43:06.676Z,2.10
2018-07-12T11:45:35.108Z,2.03
2018-07-12T11:48:03.490Z,2.30
2018-07-12T11:50:31.923Z,2.90
2018-07-12T11:53:00.375Z,2.40
2018-07-12T11:55:28.772Z,2.50
2018-07-12T11:57:57.176Z,2.73
2018-07-12T12:00:25.601Z,2.47
2018-07-12T12:02:53.991Z,2.57
2018-07-12T12:05:22.424Z,2.33
2018-07-12T12:07:50.591Z,2.90
2018-07-12T12:10:19.011Z,2.60
2018-07-12T12:12:47.429Z,2.80
2018-07-12T12:15:15.866Z,2.27
2018-07-12T12:17:44.271Z,2.17
2018-07-12T12:20:12.705Z,2.50
2018-07-12T12:22:41.106Z,2.47
2018-07-12T12:25:09.539Z,2.02
2018-07-12T12:27:37.956Z,2.10
2018-07-12T12:30:06.411Z,1.95
2018-07-12T12:32:34.820Z,1.95
2018-07-12T12:35:03.280Z,1.87
2018-07-12T12:37:31.708Z,2.00
2018-07-12T12:40:00.133Z,1.77
2018-07-12T12:42:28.522Z,1.90
2018-07-12T12:44:56.960Z,2.17
2018-07-12T12:47:25.364Z,2.00
2018-07-12T12:49:53.891Z,2.00
2018-07-12T12:52:22.292Z,1.70
2018-07-12T12:54:50.707Z,1.65
2018-07-12T12:57:19.511Z,1.62
2018-07-12T12:59:47.980Z,1.85
2018-07-12T13:02:16.418Z,1.75
2018-07-12T13:04:44.888Z,1.80
2018-07-12T13:07:13.271Z,1.98
2018-07-12T13:09:41.823Z,2.00
2018-07-12T13:12:10.375Z,1.60
2018-07-12T13:14:38.658Z,2.00
2018-07-12T13:17:07.253Z,1.90
2018-07-12T13:19:35.639Z,1.85
2018-07-12T13:22:04.083Z,1.87
2018-07-12T13:24:32.186Z,1.95
2018-07-12T13:27:00.613Z,1.80
2018-07-12T13:29:29.036Z,1.72
2018-07-12T13:31:57.479Z,1.82
2018-07-12T13:34:25.935Z,1.77
2018-07-12T13:36:54.354Z,2.30
2018-07-12T13:39:22.742Z,1.85
2018-07-12T13:41:51.180Z,1.90
2018-07-12T13:44:22.472Z,1.72
2018-07-12T13:46:52.084Z,1.80
2018-07-12T13:49:20.471Z,1.70
2018-07-12T13:51:49.883Z,1.45
2018-07-12T13:54:18.757Z,1.90
2018-07-12T13:56:47.954Z,2.22
2018-07-12T13:59:16.352Z,1.90
2018-07-12T14:01:44.796Z,1.98
2018-07-12T14:04:13.338Z,2.02
2018-07-12T14:06:43.831Z,1.82
2018-07-12T14:09:13.402Z,2.00
2018-07-12T14:11:41.851Z,1.75
2018-07-12T14:14:10.396Z,1.98
2018-07-12T14:16:38.819Z,2.10
2018-07-12T14:19:07.223Z,1.77
2018-07-12T14:21:35.645Z,2.25
2018-07-12T14:24:04.095Z,1.90
2018-07-12T14:26:32.524Z,2.10
2018-07-12T14:29:00.946Z,2.15
2018-07-12T14:31:29.353Z,1.90
2018-07-12T14:33:57.828Z,2.35
2018-07-12T14:36:26.387Z,2.12
2018-07-12T14:38:54.872Z,2.10
2018-07-12T14:41:23.283Z,2.67
2018-07-12T14:43:51.707Z,2.08
2018-07-12T14:46:20.120Z,2.87
2018-07-12T14:48:48.564Z,2.15
2018-07-12T14:51:17.022Z,1.92
2018-07-12T14:53:45.455Z,1.93
2018-07-12T14:56:13.867Z,1.87
2018-07-12T14:58:42.292Z,1.90
2018-07-12T15:01:10.748Z,1.75
2018-07-12T15:03:39.219Z,2.00
2018-07-12T15:06:07.620Z,1.85
2018-07-12T15:08:36.051Z,2.22
2018-07-12T15:11:04.456Z,1.65
2018-07-12T15:13:32.910Z,1.65
2018-07-12T15:16:01.653Z,2.00
2018-07-12T15:18:30.199Z,1.77
2018-07-12T15:20:58.650Z,1.80
2018-07-12T15:23:27.136Z,1.92
2018-07-12T15:25:55.578Z,2.20
2018-07-12T15:28:24.042Z,1.85
2018-07-12T15:30:52.556Z,1.52
2018-07-12T15:33:21.036Z,1.75
2018-07-12T15:35:49.503Z,1.60
2018-07-12T15:38:17.938Z,1.70
2018-07-12T15:40:47.736Z,1.70
2018-07-12T15:43:17.642Z,1.90
2018-07-12T15:45:46.034Z,2.08
2018-07-12T15:48:14.494Z,1.95
2018-07-12T15:50:42.896Z,1.70
2018-07-12T15:53:11.554Z,2.00
2018-07-12T15:55:39.869Z,1.70
2018-07-12T15:58:08.303Z,1.90
2018-07-12T16:00:36.708Z,1.87
2018-07-12T16:03:05.153Z,1.85
2018-07-12T16:05:33.656Z,1.90
2018-07-12T16:08:02.120Z,1.77
2018-07-12T16:10:30.748Z,1.85
2018-07-12T16:12:59.255Z,1.70
2018-07-12T16:15:27.672Z,1.60
2018-07-12T16:17:56.230Z,1.70
2018-07-12T16:20:24.616Z,1.82
2018-07-12T16:22:53.316Z,1.90
2018-07-12T16:25:21.786Z,2.02
2018-07-12T16:27:50.272Z,1.85
2018-07-12T16:30:18.792Z,2.08
2018-07-12T16:32:47.181Z,1.72
2018-07-12T16:35:15.739Z,1.90
2018-07-12T16:37:44.203Z,1.65
2018-07-12T16:40:13.122Z,1.77
2018-07-12T16:42:41.537Z,1.90
2018-07-12T16:45:09.980Z,2.00
2018-07-12T16:47:38.439Z,1.80
2018-07-12T16:50:07.214Z,2.12
2018-07-12T16:52:35.636Z,1.85
2018-07-12T16:55:04.092Z,1.90
2018-07-12T16:57:32.504Z,1.80
2018-07-12T17:00:00.937Z,1.70
2018-07-12T17:02:29.378Z,1.87
2018-07-12T17:04:57.841Z,1.60
2018-07-12T17:07:26.274Z,1.72
2018-07-12T17:09:54.725Z,1.55
2018-07-12T17:12:23.802Z,1.92
2018-07-12T17:14:52.891Z,1.60
2018-07-12T17:17:21.298Z,1.75
2018-07-12T17:19:49.766Z,1.75
2018-07-12T17:22:18.174Z,1.80
2018-07-12T17:24:48.700Z,2.12
2018-07-12T17:27:17.222Z,1.80
2018-07-12T17:29:45.623Z,1.72
2018-07-12T17:32:13.719Z,1.87
2018-07-12T17:34:42.197Z,1.90
2018-07-12T17:37:10.618Z,1.80
2018-07-12T17:39:39.039Z,1.83
2018-07-12T17:42:07.451Z,1.57
2018-07-12T17:44:35.883Z,1.90
2018-07-12T17:47:03.986Z,1.80
2018-07-12T17:49:32.415Z,1.80
2018-07-12T17:52:00.819Z,1.80
2018-07-12T17:54:29.250Z,1.67
2018-07-12T17:56:57.647Z,1.85
2018-07-12T17:59:26.076Z,1.67
2018-07-12T18:01:54.474Z,1.60
2018-07-12T18:04:22.929Z,1.87
2018-07-12T18:06:51.452Z,1.60
2018-07-12T18:09:19.875Z,1.87
2018-07-12T18:11:48.278Z,1.80
2018-07-12T18:14:16.797Z,1.63
2018-07-12T18:16:45.193Z,1.77
2018-07-12T18:19:13.719Z,1.70
2018-07-12T18:21:42.477Z,1.93
2018-07-12T18:24:10.843Z,1.73
2018-07-12T18:26:39.352Z,1.80
2018-07-12T18:29:07.740Z,1.80
2018-07-12T18:31:36.154Z,2.00
2018-07-12T18:34:04.624Z,1.77
2018-07-12T18:36:33.039Z,1.80
2018-07-12T18:39:01.419Z,2.00
2018-07-12T18:41:29.860Z,2.00
2018-07-12T18:43:58.259Z,1.97
2018-07-12T18:46:26.776Z,2.03
2018-07-12T18:48:56.114Z,2.10
2018-07-12T18:51:24.794Z,1.87
2018-07-12T18:53:53.686Z,1.90
2018-07-12T18:56:22.565Z,2.00
2018-07-12T18:58:51.406Z,2.27
2018-07-12T19:01:20.068Z,2.33
2018-07-12T19:03:48.536Z,2.13
2018-07-12T19:06:17.409Z,2.03
2018-07-12T19:08:46.225Z,1.87
2018-07-12T19:11:15.320Z,2.17
2018-07-12T19:13:44.122Z,1.80
2018-07-12T19:16:12.601Z,1.90
2018-07-12T19:18:41.065Z,2.10
2018-07-12T19:21:11.759Z,1.83
2018-07-12T19:23:40.348Z,2.20
2018-07-12T19:26:09.141Z,1.93
2018-07-12T19:28:37.564Z,2.30
2018-07-12T19:31:08.510Z,2.30
2018-07-12T19:33:37.135Z,2.20
2018-07-12T19:36:05.860Z,2.00
2018-07-12T19:38:35.181Z,2.30
2018-07-12T19:41:03.777Z,2.00
2018-07-12T19:43:32.291Z,2.13
2018-07-12T19:46:01.071Z,1.97
2018-07-12T19:48:29.516Z,2.30
2018-07-12T19:50:59.625Z,2.43
2018-07-12T19:53:28.481Z,2.20
2018-07-12T19:55:56.998Z,2.20
2018-07-12T19:58:25.879Z,2.10
2018-07-12T20:00:54.628Z,2.43
2018-07-12T20:03:23.465Z,1.90
2018-07-12T20:05:52.780Z,2.47
2018-07-12T20:08:21.301Z,2.13
2018-07-12T20:10:50.122Z,2.17
2018-07-12T20:13:18.915Z,2.30
2018-07-12T20:15:48.105Z,2.20
2018-07-12T20:18:16.903Z,2.03
2018-07-12T20:20:45.494Z,2.27
2018-07-12T20:23:13.914Z,2.37
2018-07-12T20:25:43.556Z,2.50
2018-07-12T20:28:12.095Z,2.27
2018-07-12T20:30:40.556Z,2.20
2018-07-12T20:33:08.970Z,2.23
2018-07-12T20:35:37.458Z,2.10
2018-07-12T20:38:05.889Z,1.83
2018-07-12T20:40:34.379Z,2.40
2018-07-12T20:43:02.806Z,2.17
2018-07-12T20:45:31.260Z,2.20
2018-07-12T20:47:59.747Z,2.27
2018-07-12T20:50:28.483Z,2.50
2018-07-12T20:52:56.958Z,2.20
2018-07-12T20:55:25.366Z,2.40
2018-07-12T20:57:53.831Z,2.50
2018-07-12T21:00:22.275Z,2.27
2018-07-12T21:02:50.747Z,2.30
2018-07-12T21:05:19.207Z,2.50
2018-07-12T21:07:47.669Z,2.63
2018-07-12T21:10:16.683Z,2.57
2018-07-12T21:12:45.192Z,2.33
2018-07-12T21:15:13.648Z,2.50
2018-07-12T21:17:42.106Z,2.50
2018-07-12T21:20:10.558Z,2.70
2018-07-12T21:22:39.023Z,2.60
2018-07-12T21:25:07.476Z,2.40
2018-07-12T21:27:35.947Z,2.70
2018-07-12T21:30:07.108Z,3.07
2018-07-12T21:32:35.620Z,2.60
2018-07-12T21:35:04.125Z,2.63
2018-07-12T21:37:32.660Z,2.70
2018-07-12T21:40:01.138Z,2.47
2018-07-12T21:42:29.627Z,3.00
2018-07-12T21:44:58.091Z,2.67
2018-07-12T21:47:26.305Z,2.50
2018-07-12T21:49:54.732Z,2.70
2018-07-12T21:52:23.225Z,2.53
2018-07-12T21:54:51.740Z,2.53
2018-07-12T21:57:20.216Z,3.13
2018-07-12T21:59:48.718Z,3.10
2018-07-12T22:02:17.313Z,2.67
2018-07-12T22:04:45.836Z,3.37
2018-07-12T22:08:21.134Z,3.33
2018-07-12T22:10:51.335Z,2.90
2018-07-12T22:13:20.460Z,2.93
2018-07-12T22:15:48.933Z,3.13
2018-07-12T22:18:17.448Z,3.37
2018-07-12T22:20:46.485Z,3.57
2018-07-12T22:23:14.996Z,3.60
2018-07-12T22:25:43.492Z,3.60
2018-07-12T22:28:12.421Z,3.77
2018-07-12T22:30:40.971Z,3.60
2018-07-12T22:33:09.562Z,3.83
2018-07-12T22:35:37.994Z,3.23
2018-07-12T22:38:06.487Z,3.37
2018-07-12T22:40:34.955Z,3.90
2018-07-12T22:43:03.411Z,3.80
2018-07-12T22:45:31.887Z,3.80
2018-07-12T22:48:00.506Z,3.27
2018-07-12T22:50:29.440Z,3.80
2018-07-12T22:52:57.933Z,3.90
2018-07-12T22:55:26.372Z,3.60
2018-07-12T22:57:54.881Z,3.60
2018-07-12T23:00:23.319Z,3.27
2018-07-12T23:02:51.861Z,3.63
2018-07-12T23:05:20.342Z,3.77
2018-07-12T23:07:48.583Z,3.67
2018-07-12T23:10:17.038Z,3.27
2018-07-12T23:12:45.528Z,3.43
2018-07-12T23:15:14.009Z,3.60
2018-07-12T23:17:42.503Z,3.67
2018-07-12T23:20:11.045Z,3.90
2018-07-12T23:22:39.633Z,3.60
2018-07-12T23:25:08.313Z,3.77
2018-07-12T23:27:36.874Z,3.67
2018-07-12T23:30:05.051Z,3.80
2018-07-12T23:32:33.608Z,4.10
2018-07-12T23:35:02.109Z,3.80
2018-07-12T23:37:30.588Z,3.70
2018-07-12T23:39:59.108Z,3.63
2018-07-12T23:42:27.588Z,3.90
2018-07-12T23:44:56.120Z,3.87
2018-07-12T23:47:24.693Z,3.90
2018-07-12T23:49:53.167Z,4.17
2018-07-12T23:52:21.765Z,4.13
2018-07-12T23:54:50.262Z,4.40
2018-07-12T23:57:18.687Z,4.33
2018-07-12T23:59:47.170Z,4.33
